Time;durP1;ratioP1;P1;durP2;ratioP2;P2;SDS_P1;SDS_P2;PMS_P1;PMS_P2;Temp;Humidity;BMP_temperature;BMP_pressure;BME280_temperature;BME280_humidity;BME280_pressure;Samples;Min_cycle;Max_cycle;Signal;HPM_P1;HPM_P2
2022/10/16 00:01:13;;;;;;;2.45;2.25;;;15.40;99.90;;;;;;5109182;27;20200;-65
2022/10/16 00:03:41;;;;;;;1.90;1.65;;;15.40;99.90;;;;;;5103766;28;20554;-66
2022/10/16 00:06:08;;;;;;;6.70;1.88;;;15.40;99.90;;;;;;5095646;28;20276;-66
2022/10/16 00:08:34;;;;;;;1.95;1.70;;;15.50;99.90;;;;;;5093178;28;20318;-66
2022/10/16 00:11:12;;;;;;;1.65;1.35;;;15.50;99.90;;;;;;5106848;28;20295;-64
2022/10/16 00:13:40;;;;;;;5.07;2.80;;;15.50;99.90;;;;;;5097669;28;20210;-66
2022/10/16 00:16:08;;;;;;;3.83;2.03;;;15.50;99.90;;;;;;5094842;28;20185;-66
2022/10/16 00:18:34;;;;;;;3.70;2.20;;;15.50;99.90;;;;;;5097548;28;20176;-65
2022/10/16 00:21:04;;;;;;;4.03;2.05;;;15.60;99.90;;;;;;5095055;28;20191;-65
2022/10/16 00:23:31;;;;;;;4.65;2.00;;;15.50;99.90;;;;;;5104656;28;20544;-66
2022/10/16 00:26:03;;;;;;;4.57;2.38;;;15.40;99.90;;;;;;5093449;28;20195;-66
2022/10/16 00:28:29;;;;;;;2.70;2.08;;;15.40;99.90;;;;;;5105707;28;20629;-65
2022/10/16 00:30:55;;;;;;;2.05;1.70;;;15.40;99.90;;;;;;5100291;28;20212;-65
2022/10/16 00:33:21;;;;;;;2.47;1.58;;;15.30;99.90;;;;;;5108349;27;20180;-65
2022/10/16 00:35:47;;;;;;;3.00;1.33;;;15.30;99.90;;;;;;5092975;28;20231;-66
2022/10/16 00:38:13;;;;;;;2.40;1.70;;;15.20;99.90;;;;;;5108805;27;20660;-66
2022/10/16 00:40:39;;;;;;;1.60;1.50;;;15.30;99.90;;;;;;5093112;28;20193;-66
2022/10/16 00:43:46;;;;;;;2.08;1.95;;;15.30;99.90;;;;;;5092715;28;20193;-64
2022/10/16 00:46:31;;;;;;;2.30;1.00;;;15.30;99.90;;;;;;5074603;28;20256;-65
2022/10/16 00:49:03;;;;;;;2.47;1.65;;;15.20;99.90;;;;;;5094443;28;20527;-66
2022/10/16 00:51:33;;;;;;;1.42;1.42;;;15.20;99.90;;;;;;5095397;28;20295;-65
2022/10/16 00:54:01;;;;;;;1.48;1.38;;;15.30;99.90;;;;;;5102912;28;20181;-66
2022/10/16 00:56:27;;;;;;;1.67;1.00;;;15.40;99.90;;;;;;5097483;28;20181;-65
2022/10/16 00:58:53;;;;;;;1.45;1.23;;;15.30;99.90;;;;;;5103117;28;20180;-65
2022/10/16 01:01:19;;;;;;;1.70;1.42;;;15.20;99.90;;;;;;5092455;28;20185;-65
2022/10/16 01:03:45;;;;;;;1.85;1.33;;;15.00;99.90;;;;;;5107964;27;20181;-67
2022/10/16 01:06:46;;;;;;;1.58;1.33;;;14.90;99.90;;;;;;5099914;28;20246;-65
2022/10/16 01:09:27;;;;;;;1.45;1.25;;;15.10;99.90;;;;;;5109822;28;20171;-65
2022/10/16 01:12:15;;;;;;;2.17;1.65;;;15.10;99.90;;;;;;5109023;28;20219;-65
2022/10/16 01:14:48;;;;;;;1.50;1.40;;;15.10;99.90;;;;;;5097712;28;20185;-65
2022/10/16 01:17:58;;;;;;;2.80;2.47;;;15.00;99.90;;;;;;5104023;28;20179;-65
2022/10/16 01:20:37;;;;;;;1.88;1.65;;;15.10;99.90;;;;;;5064048;28;20223;-66
2022/10/16 01:23:21;;;;;;;1.65;1.50;;;15.00;99.90;;;;;;5094209;28;20206;-65
2022/10/16 01:26:24;;;;;;;3.15;1.90;;;15.00;99.90;;;;;;5094530;28;20675;-67
2022/10/16 01:29:17;;;;;;;2.47;2.28;;;15.10;99.90;;;;;;5094837;28;20551;-66
2022/10/16 01:31:49;;;;;;;2.67;1.48;;;15.00;99.90;;;;;;5100933;28;20207;-66
2022/10/16 01:34:20;;;;;;;1.67;1.50;;;14.80;99.90;;;;;;5106892;28;20192;-66
2022/10/16 01:37:02;;;;;;;1.48;1.35;;;14.70;99.90;;;;;;5102352;28;20169;-66
2022/10/16 01:39:33;;;;;;;2.53;2.15;;;14.70;99.90;;;;;;5099019;28;20656;-66
2022/10/16 01:42:11;;;;;;;1.88;1.58;;;14.90;99.90;;;;;;5102284;28;20189;-67
2022/10/16 01:44:38;;;;;;;1.60;1.50;;;14.90;99.90;;;;;;5101315;28;20274;-66
2022/10/16 01:47:07;;;;;;;1.70;1.60;;;15.00;99.90;;;;;;5107264;28;20177;-66
2022/10/16 01:49:36;;;;;;;1.55;1.40;;;14.90;99.90;;;;;;5105029;28;20212;-66
2022/10/16 01:52:06;;;;;;;2.03;1.83;;;14.70;99.90;;;;;;5108709;28;20242;-65
2022/10/16 01:54:34;;;;;;;2.58;1.45;;;14.80;99.90;;;;;;5109910;28;20194;-65
2022/10/16 01:57:02;;;;;;;1.77;1.67;;;14.80;99.90;;;;;;5096219;28;20228;-66
2022/10/16 01:59:31;;;;;;;2.22;1.92;;;14.70;99.90;;;;;;5094815;28;20636;-65
2022/10/16 02:02:00;;;;;;;1.73;1.63;;;14.70;99.90;;;;;;5104109;28;20189;-65
2022/10/16 02:04:37;;;;;;;1.83;1.70;;;14.90;99.90;;;;;;5094949;28;20782;-64
2022/10/16 02:07:03;;;;;;;2.10;1.92;;;14.90;99.90;;;;;;5098055;28;20633;-65
2022/10/16 02:09:30;;;;;;;2.20;2.00;;;14.90;99.90;;;;;;5084143;28;20204;-65
2022/10/16 02:11:59;;;;;;;2.17;1.90;;;14.80;99.90;;;;;;5098619;28;20243;-64
2022/10/16 02:14:26;;;;;;;1.95;1.65;;;15.00;99.90;;;;;;5102731;28;20234;-65
2022/10/16 02:16:51;;;;;;;2.17;1.98;;;15.10;99.90;;;;;;5110311;27;20180;-65
2022/10/16 02:19:20;;;;;;;1.65;1.55;;;15.00;99.90;;;;;;5077025;28;20541;-65
2022/10/16 02:21:48;;;;;;;2.05;1.95;;;15.00;99.90;;;;;;5102692;28;20201;-66
2022/10/16 02:24:47;;;;;;;5.88;2.53;;;15.00;99.90;;;;;;5094885;28;20180;-66
2022/10/16 02:27:50;;;;;;;2.22;1.90;;;15.10;99.90;;;;;;5093732;28;20228;-65
2022/10/16 02:30:34;;;;;;;1.60;1.50;;;15.00;99.90;;;;;;5094652;28;20180;-66
2022/10/16 02:33:03;;;;;;;2.55;1.90;;;15.00;99.90;;;;;;5102874;28;20288;-65
2022/10/16 02:35:30;;;;;;;1.98;1.77;;;15.00;99.90;;;;;;5097416;28;20185;-66
2022/10/16 02:37:57;;;;;;;3.55;2.33;;;14.90;99.90;;;;;;5093624;28;20196;-65
2022/10/16 02:40:24;;;;;;;3.95;2.75;;;15.00;99.90;;;;;;5094309;28;20216;-65
2022/10/16 02:42:54;;;;;;;3.10;2.78;;;15.10;99.90;;;;;;5119383;27;20184;-65
2022/10/16 02:45:20;;;;;;;5.18;2.80;;;15.00;99.90;;;;;;5093417;28;20184;-65
2022/10/16 02:47:46;;;;;;;2.78;1.95;;;15.00;99.90;;;;;;5096577;28;20660;-66
2022/10/16 02:50:12;;;;;;;3.13;2.40;;;15.00;99.90;;;;;;5101547;28;20241;-66
2022/10/16 02:52:38;;;;;;;3.42;2.25;;;15.00;99.90;;;;;;5103982;28;20219;-65
2022/10/16 02:55:04;;;;;;;2.58;1.90;;;14.90;99.90;;;;;;5094437;28;20192;-66
2022/10/16 02:57:31;;;;;;;2.55;1.90;;;14.80;99.90;;;;;;5092925;28;20181;-65
2022/10/16 02:59:57;;;;;;;2.30;1.83;;;14.70;99.90;;;;;;5127299;27;20184;-65
2022/10/16 03:02:23;;;;;;;2.88;1.95;;;14.90;99.90;;;;;;5110185;28;20213;-65
2022/10/16 03:04:48;;;;;;;2.38;1.92;;;15.00;99.90;;;;;;5101877;28;20241;-65
2022/10/16 03:07:14;;;;;;;3.63;1.83;;;15.00;99.90;;;;;;5092074;28;20191;-65
2022/10/16 03:09:40;;;;;;;4.35;2.03;;;14.90;99.90;;;;;;5099030;28;20184;-65
2022/10/16 03:12:06;;;;;;;3.15;2.33;;;14.90;99.90;;;;;;5109573;28;20251;-67
2022/10/16 03:14:31;;;;;;;3.53;2.05;;;14.90;99.90;;;;;;5108823;28;20207;-65
2022/10/16 03:16:57;;;;;;;4.25;2.58;;;15.00;99.90;;;;;;5099048;28;20268;-65
2022/10/16 03:19:23;;;;;;;4.20;2.33;;;15.10;99.90;;;;;;5108702;28;20540;-65
2022/10/16 03:21:48;;;;;;;3.65;2.67;;;15.10;99.90;;;;;;5110963;28;20597;-66
2022/10/16 03:24:14;;;;;;;3.42;2.38;;;15.10;99.90;;;;;;5111445;28;20184;-65
2022/10/16 03:26:40;;;;;;;7.05;3.13;;;15.00;99.90;;;;;;5107759;28;20652;-65
2022/10/16 03:29:06;;;;;;;3.90;2.70;;;15.10;99.90;;;;;;5092612;28;20193;-65
2022/10/16 03:31:32;;;;;;;2.90;2.53;;;15.00;99.90;;;;;;5128376;27;20667;-66
2022/10/16 03:33:58;;;;;;;3.05;2.60;;;14.90;99.90;;;;;;5093620;28;20192;-66
2022/10/16 03:36:23;;;;;;;6.22;3.78;;;15.00;99.90;;;;;;5101489;28;20188;-65
2022/10/16 03:38:49;;;;;;;2.50;2.22;;;15.10;99.90;;;;;;5092407;28;20748;-66
2022/10/16 03:41:15;;;;;;;3.75;2.90;;;15.00;99.90;;;;;;5091693;28;20197;-65
2022/10/16 03:43:41;;;;;;;2.65;2.45;;;15.00;99.90;;;;;;5097182;28;20184;-64
2022/10/16 03:46:06;;;;;;;4.20;3.13;;;15.10;99.90;;;;;;5108362;28;20703;-65
2022/10/16 03:48:32;;;;;;;3.45;2.10;;;15.10;99.90;;;;;;5092506;28;20644;-65
2022/10/16 03:50:58;;;;;;;4.80;2.63;;;15.00;99.90;;;;;;5101736;28;20323;-65
2022/10/16 03:53:24;;;;;;;3.47;2.00;;;15.00;99.90;;;;;;5092443;28;20181;-64
2022/10/16 03:55:50;;;;;;;3.10;2.75;;;15.00;99.90;;;;;;5097149;28;20193;-65
2022/10/16 03:58:17;;;;;;;3.33;2.28;;;15.00;99.90;;;;;;5108676;28;20284;-65
2022/10/16 04:00:44;;;;;;;2.72;2.53;;;15.00;99.90;;;;;;5112864;28;20188;-68
2022/10/16 04:03:10;;;;;;;2.90;2.70;;;15.00;99.90;;;;;;5107185;28;20559;-65
2022/10/16 04:05:36;;;;;;;3.58;2.97;;;15.10;99.90;;;;;;5092340;28;20220;-66
2022/10/16 04:08:02;;;;;;;2.72;2.08;;;15.00;99.90;;;;;;5092842;28;20563;-65
2022/10/16 04:10:27;;;;;;;1.92;1.83;;;14.90;99.90;;;;;;5115168;27;20191;-65
2022/10/16 04:12:55;;;;;;;2.88;1.98;;;14.90;99.90;;;;;;5107836;28;20558;-66
2022/10/16 04:15:24;;;;;;;4.85;2.72;;;14.90;99.90;;;;;;5093895;28;20207;-66
2022/10/16 04:17:49;;;;;;;1.83;1.73;;;14.80;99.90;;;;;;5102058;28;20184;-66
2022/10/16 04:20:16;;;;;;;4.25;2.20;;;14.90;99.90;;;;;;5107659;28;20199;-66
2022/10/16 04:22:41;;;;;;;2.10;2.00;;;15.00;99.90;;;;;;5099010;28;20188;-65
2022/10/16 04:25:07;;;;;;;2.38;2.17;;;15.00;99.90;;;;;;5091454;28;20192;-65
2022/10/16 04:27:33;;;;;;;3.30;2.00;;;15.00;99.90;;;;;;5095939;28;20177;-65
2022/10/16 04:30:00;;;;;;;4.22;2.10;;;14.90;99.90;;;;;;5092817;28;20188;-66
2022/10/16 04:32:26;;;;;;;4.10;2.60;;;14.90;99.90;;;;;;5107494;28;20665;-65
2022/10/16 04:34:55;;;;;;;5.85;2.47;;;14.90;99.90;;;;;;5100934;28;20190;-66
2022/10/16 04:37:25;;;;;;;5.00;2.10;;;14.90;99.90;;;;;;5107906;28;20180;-66
2022/10/16 04:39:51;;;;;;;2.17;1.98;;;14.80;99.90;;;;;;5095565;28;20184;-65
2022/10/16 04:42:16;;;;;;;4.70;2.00;;;14.70;99.90;;;;;;5092106;28;20187;-66
2022/10/16 04:44:42;;;;;;;2.30;1.85;;;14.70;99.90;;;;;;5097298;28;20278;-65
2022/10/16 04:47:08;;;;;;;1.65;1.55;;;14.70;99.90;;;;;;5093497;28;20309;-65
2022/10/16 04:49:34;;;;;;;5.78;2.10;;;14.70;99.90;;;;;;5091600;28;20185;-65
2022/10/16 04:52:00;;;;;;;3.33;1.83;;;14.70;99.90;;;;;;5101926;28;20287;-65
2022/10/16 04:54:25;;;;;;;2.03;1.80;;;14.80;99.90;;;;;;5111876;28;20204;-65
2022/10/16 04:56:54;;;;;;;1.90;1.80;;;14.80;99.90;;;;;;5091546;28;20192;-66
2022/10/16 04:59:20;;;;;;;1.95;1.80;;;14.70;99.90;;;;;;5102557;28;20250;-65
2022/10/16 05:01:49;;;;;;;2.58;2.03;;;14.70;99.90;;;;;;5103282;28;20708;-66
2022/10/16 05:04:15;;;;;;;4.07;2.10;;;14.50;99.90;;;;;;5105070;28;20180;-65
2022/10/16 05:06:41;;;;;;;2.78;2.10;;;14.50;99.90;;;;;;5107171;28;20188;-66
2022/10/16 05:09:07;;;;;;;1.95;1.85;;;14.60;99.90;;;;;;5113176;28;20192;-65
2022/10/16 05:11:33;;;;;;;2.20;2.05;;;14.60;99.90;;;;;;5101346;28;20648;-65
2022/10/16 05:13:59;;;;;;;1.90;1.67;;;14.60;99.90;;;;;;5101739;28;20554;-65
2022/10/16 05:16:25;;;;;;;2.13;1.67;;;14.70;99.90;;;;;;5098396;28;20185;-65
2022/10/16 05:18:54;;;;;;;1.98;1.83;;;14.70;99.90;;;;;;5096331;28;20242;-65
2022/10/16 05:21:20;;;;;;;4.82;2.20;;;14.60;99.90;;;;;;5095226;28;20185;-65
2022/10/16 05:23:46;;;;;;;3.40;2.10;;;14.60;99.90;;;;;;5097540;28;20191;-67
2022/10/16 05:26:12;;;;;;;4.63;1.88;;;14.60;99.90;;;;;;5100613;28;20202;-66
2022/10/16 05:28:37;;;;;;;3.63;2.10;;;14.50;99.90;;;;;;5096842;28;20262;-66
2022/10/16 05:31:08;;;;;;;2.72;2.33;;;14.50;99.90;;;;;;5115365;28;20298;-66
2022/10/16 05:33:34;;;;;;;2.45;2.25;;;14.50;99.90;;;;;;5102984;28;20189;-66
2022/10/16 05:36:08;;;;;;;4.75;2.00;;;14.40;99.90;;;;;;5101286;28;20180;-66
2022/10/16 05:38:37;;;;;;;5.32;2.90;;;14.30;99.90;;;;;;5094569;28;20277;-66
2022/10/16 05:41:04;;;;;;;4.28;2.33;;;14.30;99.90;;;;;;5095692;28;20215;-66
2022/10/16 05:43:30;;;;;;;2.42;2.22;;;14.20;99.90;;;;;;5094598;28;20637;-66
2022/10/16 05:46:02;;;;;;;4.15;3.65;;;14.30;99.90;;;;;;5108583;28;20210;-67
2022/10/16 05:48:28;;;;;;;2.33;2.10;;;14.20;99.90;;;;;;5102750;28;20199;-63
2022/10/16 05:51:01;;;;;;;3.75;2.30;;;14.40;99.90;;;;;;5103865;28;20204;-64
2022/10/16 05:53:28;;;;;;;2.30;2.10;;;14.50;99.90;;;;;;5102692;28;20196;-65
2022/10/16 05:55:56;;;;;;;4.35;2.78;;;14.60;99.90;;;;;;5100962;28;20237;-64
2022/10/16 05:58:22;;;;;;;3.67;2.72;;;14.60;99.90;;;;;;5110225;28;20223;-64
2022/10/16 06:01:00;;;;;;;4.30;2.80;;;14.50;99.90;;;;;;5096618;28;20544;-65
2022/10/16 06:03:25;;;;;;;2.55;2.35;;;14.30;99.90;;;;;;5100887;28;20338;-65
2022/10/16 06:05:54;;;;;;;2.35;2.10;;;14.40;99.90;;;;;;5093591;27;20185;-65
2022/10/16 06:08:22;;;;;;;7.32;3.50;;;14.40;99.90;;;;;;5082068;28;20267;-64
2022/10/16 06:10:48;;;;;;;3.17;2.63;;;14.40;99.90;;;;;;5111388;28;20747;-65
2022/10/16 06:13:14;;;;;;;5.03;2.85;;;14.60;99.90;;;;;;5099195;28;20188;-65
2022/10/16 06:15:42;;;;;;;5.18;2.90;;;14.60;99.90;;;;;;5102185;28;20195;-65
2022/10/16 06:18:08;;;;;;;3.80;2.38;;;14.70;99.90;;;;;;5100614;28;20185;-66
2022/10/16 06:20:37;;;;;;;4.35;3.42;;;14.60;99.90;;;;;;5092220;28;20241;-65
2022/10/16 06:23:04;;;;;;;2.50;2.30;;;14.70;99.90;;;;;;5094657;28;20259;-65
2022/10/16 06:25:30;;;;;;;3.85;2.28;;;14.60;99.90;;;;;;5094148;28;20237;-65
2022/10/16 06:27:56;;;;;;;2.50;2.28;;;14.60;99.90;;;;;;5093459;28;20191;-65
2022/10/16 06:30:22;;;;;;;2.90;1.88;;;14.60;99.90;;;;;;5101475;28;20188;-65
2022/10/16 06:32:47;;;;;;;2.90;2.25;;;14.70;99.90;;;;;;5110871;28;20215;-66
2022/10/16 06:35:13;;;;;;;2.53;2.33;;;14.70;99.90;;;;;;5093872;28;20177;-66
2022/10/16 06:37:39;;;;;;;2.78;1.98;;;14.70;99.90;;;;;;5094431;28;20180;-66
2022/10/16 06:40:05;;;;;;;2.42;2.22;;;14.80;99.90;;;;;;5096777;28;20644;-65
2022/10/16 06:42:30;;;;;;;4.13;2.15;;;14.90;99.90;;;;;;5099020;28;20199;-66
2022/10/16 06:44:59;;;;;;;2.80;2.22;;;14.80;99.90;;;;;;5092928;28;20185;-65
2022/10/16 06:47:25;;;;;;;2.58;2.38;;;14.70;99.90;;;;;;5094714;28;20191;-66
2022/10/16 06:49:54;;;;;;;2.97;2.40;;;14.80;99.90;;;;;;5092586;28;20189;-67
2022/10/16 06:52:31;;;;;;;3.83;3.00;;;14.90;99.90;;;;;;5092885;28;20200;-67
2022/10/16 06:54:57;;;;;;;2.55;2.35;;;14.90;99.90;;;;;;5095897;28;20227;-66
2022/10/16 06:57:22;;;;;;;2.80;2.22;;;14.90;99.90;;;;;;5099053;28;20647;-66
2022/10/16 06:59:51;;;;;;;2.92;2.63;;;14.90;99.90;;;;;;5093984;28;20191;-68
2022/10/16 07:02:16;;;;;;;3.50;2.30;;;15.10;99.90;;;;;;5101995;28;20199;-67
2022/10/16 07:04:42;;;;;;;2.78;2.03;;;15.40;99.90;;;;;;5095220;28;20193;-66
2022/10/16 07:07:08;;;;;;;1.90;1.70;;;15.60;99.90;;;;;;5078779;28;20192;-68
2022/10/16 07:09:33;;;;;;;3.28;1.95;;;15.70;99.90;;;;;;5104367;28;20264;-66
2022/10/16 07:11:59;;;;;;;2.20;2.00;;;15.80;99.90;;;;;;5094243;28;20236;-66
2022/10/16 07:14:25;;;;;;;5.53;2.45;;;15.80;99.90;;;;;;5103237;28;20187;-67
2022/10/16 07:16:50;;;;;;;2.67;2.47;;;15.90;99.90;;;;;;5096545;28;20181;-66
2022/10/16 07:19:17;;;;;;;3.38;2.50;;;16.70;99.90;;;;;;5091083;28;20621;-67
2022/10/16 07:21:44;;;;;;;2.88;1.80;;;17.70;99.90;;;;;;5093935;28;20184;-67
2022/10/16 07:24:15;;;;;;;1.70;1.60;;;18.10;99.90;;;;;;5098875;28;20188;-67
2022/10/16 07:26:43;;;;;;;1.20;1.20;;;18.40;99.90;;;;;;5106423;28;20183;-68
2022/10/16 07:29:19;;;;;;;1.60;1.50;;;18.80;99.90;;;;;;5105155;28;20179;-67
2022/10/16 07:31:45;;;;;;;8.48;2.25;;;19.20;99.90;;;;;;5096885;28;20200;-69
2022/10/16 07:34:13;;;;;;;2.45;2.22;;;19.40;99.90;;;;;;5093648;28;20199;-67
2022/10/16 07:36:39;;;;;;;2.75;1.63;;;19.60;99.90;;;;;;5097014;28;20249;-68
2022/10/16 07:39:04;;;;;;;4.68;1.33;;;20.20;99.90;;;;;;5091578;28;20188;-67
2022/10/16 07:41:32;;;;;;;1.95;1.50;;;20.50;99.90;;;;;;5090464;28;20195;-67
2022/10/16 07:44:02;;;;;;;1.60;1.50;;;20.50;99.90;;;;;;5107579;28;20191;-67
2022/10/16 07:46:28;;;;;;;2.00;1.85;;;20.80;99.90;;;;;;5100206;28;20557;-67
2022/10/16 07:48:54;;;;;;;2.03;1.83;;;21.10;99.90;;;;;;5107751;28;20188;-67
2022/10/16 07:51:24;;;;;;;2.40;1.30;;;21.50;99.90;;;;;;5094233;28;20220;-67
2022/10/16 07:53:50;;;;;;;2.10;1.58;;;21.60;99.90;;;;;;5105281;28;20191;-67
2022/10/16 07:56:17;;;;;;;1.60;1.50;;;21.30;99.90;;;;;;5093457;28;20188;-67
2022/10/16 07:58:43;;;;;;;1.33;1.23;;;20.80;99.90;;;;;;5100758;28;20245;-67
2022/10/16 08:01:12;;;;;;;1.73;1.45;;;20.30;99.90;;;;;;5108690;27;20267;-68
2022/10/16 08:03:41;;;;;;;2.00;1.80;;;19.60;99.90;;;;;;5093785;28;20660;-66
2022/10/16 08:06:07;;;;;;;1.80;1.70;;;19.20;99.90;;;;;;5092999;28;20661;-69
2022/10/16 08:08:32;;;;;;;6.13;3.00;;;19.00;99.90;;;;;;5096284;28;20307;-69
2022/10/16 08:10:58;;;;;;;2.38;1.50;;;19.00;99.90;;;;;;5111839;27;20223;-69
2022/10/16 08:13:24;;;;;;;5.68;1.38;;;18.60;99.90;;;;;;5092410;28;20191;-67
2022/10/16 08:15:49;;;;;;;1.88;1.50;;;18.20;99.90;;;;;;5099237;28;20183;-68
2022/10/16 08:18:15;;;;;;;1.60;1.48;;;17.80;99.90;;;;;;5128803;27;20193;-68
2022/10/16 08:20:42;;;;;;;1.48;1.15;;;17.30;99.90;;;;;;5093180;28;20188;-67
2022/10/16 08:23:11;;;;;;;5.88;1.63;;;17.10;99.90;;;;;;5108903;28;20207;-67
2022/10/16 08:25:37;;;;;;;2.05;1.33;;;16.90;99.90;;;;;;5109234;27;20256;-67
2022/10/16 08:28:10;;;;;;;2.40;2.00;;;16.70;99.90;;;;;;5095607;28;20201;-70
2022/10/16 08:30:39;;;;;;;2.15;1.50;;;16.90;99.90;;;;;;5096730;28;20196;-68
2022/10/16 08:33:06;;;;;;;1.58;1.48;;;16.90;99.90;;;;;;5108326;28;20214;-69
2022/10/16 08:35:31;;;;;;;2.72;2.00;;;17.00;99.90;;;;;;5096295;28;20660;-66
2022/10/16 08:37:57;;;;;;;2.75;1.80;;;17.10;99.90;;;;;;5096882;28;20188;-66
2022/10/16 08:40:30;;;;;;;1.48;1.35;;;17.20;99.90;;;;;;5095942;28;20660;-67
2022/10/16 08:43:21;;;;;;;1.60;1.50;;;17.20;99.90;;;;;;5114295;28;20658;-68
2022/10/16 08:46:08;;;;;;;3.08;1.48;;;17.30;99.90;;;;;;5108574;28;20172;-68
2022/10/16 08:48:48;;;;;;;3.38;2.20;;;17.30;99.90;;;;;;5104640;28;20180;-68
2022/10/16 08:51:34;;;;;;;1.35;1.23;;;17.20;99.90;;;;;;5111468;28;20233;-70
2022/10/16 08:54:05;;;;;;;1.23;1.13;;;17.20;99.90;;;;;;5106029;28;20194;-67
2022/10/16 08:56:33;;;;;;;9.25;3.38;;;17.30;99.90;;;;;;5105901;28;20264;-69
2022/10/16 08:58:59;;;;;;;4.25;1.33;;;17.40;99.90;;;;;;5107314;27;20191;-68
2022/10/16 09:01:53;;;;;;;3.30;1.30;;;17.50;99.90;;;;;;5112318;27;20230;-68
2022/10/16 09:04:37;;;;;;;1.70;1.55;;;17.60;99.90;;;;;;5100633;28;20724;-69
2022/10/16 09:07:31;;;;;;;1.55;1.50;;;17.70;99.90;;;;;;5095194;28;20625;-70
2022/10/16 09:10:11;;;;;;;2.38;1.50;;;17.60;99.90;;;;;;5086481;28;20200;-68
2022/10/16 09:12:53;;;;;;;1.50;1.40;;;17.70;99.90;;;;;;5112542;28;20195;-70
2022/10/16 09:15:41;;;;;;;1.55;1.45;;;17.70;99.90;;;;;;5101567;28;20201;-70
2022/10/16 09:18:20;;;;;;;2.45;1.02;;;17.60;99.90;;;;;;5091611;27;20197;-68
2022/10/16 09:20:57;;;;;;;3.42;1.63;;;17.50;99.90;;;;;;5112954;27;20187;-68
2022/10/16 09:23:33;;;;;;;2.97;1.35;;;17.60;99.90;;;;;;5104570;28;20191;-68
2022/10/16 09:25:59;;;;;;;2.22;1.08;;;17.70;99.90;;;;;;5107902;28;20172;-68
2022/10/16 09:28:28;;;;;;;1.25;0.88;;;17.60;99.90;;;;;;5106189;28;20187;-68
2022/10/16 09:30:54;;;;;;;3.25;2.55;;;17.60;99.90;;;;;;5113825;28;20204;-69
2022/10/16 09:33:25;;;;;;;1.95;0.95;;;17.70;99.90;;;;;;5104298;28;20683;-66
2022/10/16 09:35:53;;;;;;;2.65;0.85;;;17.80;99.90;;;;;;5108659;28;20229;-68
2022/10/16 09:38:33;;;;;;;1.25;1.00;;;17.80;99.90;;;;;;5095633;28;20176;-67
2022/10/16 09:41:22;;;;;;;5.20;1.27;;;17.70;99.90;;;;;;5095372;28;20181;-67
2022/10/16 09:44:00;;;;;;;1.02;1.00;;;17.70;99.90;;;;;;5087976;28;20189;-67
2022/10/16 09:46:35;;;;;;;1.58;1.33;;;17.90;99.90;;;;;;5101423;28;20180;-68
2022/10/16 09:49:08;;;;;;;0.90;0.90;;;17.90;99.90;;;;;;5108930;28;20178;-67
2022/10/16 09:51:37;;;;;;;2.90;1.60;;;17.80;99.90;;;;;;5103307;28;20212;-68
2022/10/16 09:54:18;;;;;;;1.67;0.80;;;17.90;99.90;;;;;;5108616;28;20609;-66
2022/10/16 09:56:51;;;;;;;5.75;1.35;;;18.10;99.90;;;;;;5103571;27;20202;-64
2022/10/16 09:59:19;;;;;;;0.95;0.93;;;18.40;99.90;;;;;;5101796;28;20245;-63
2022/10/16 10:01:50;;;;;;;6.32;1.10;;;18.40;99.90;;;;;;5099425;28;20204;-64
2022/10/16 10:04:20;;;;;;;1.48;0.98;;;18.50;99.90;;;;;;5096346;28;20188;-65
2022/10/16 10:06:57;;;;;;;2.10;1.00;;;18.40;99.90;;;;;;5099829;28;20191;-65
2022/10/16 10:09:29;;;;;;;3.22;0.77;;;18.40;99.90;;;;;;5105182;28;20180;-66
2022/10/16 10:11:54;;;;;;;5.32;0.98;;;18.50;99.90;;;;;;5102302;28;20212;-65
2022/10/16 10:14:37;;;;;;;3.60;1.42;;;18.60;99.90;;;;;;5100463;28;20192;-66
2022/10/16 10:17:05;;;;;;;1.48;1.38;;;18.60;99.90;;;;;;5099464;28;20225;-65
2022/10/16 10:19:38;;;;;;;2.78;1.13;;;18.70;99.90;;;;;;5095253;28;20189;-64
2022/10/16 10:22:16;;;;;;;0.82;0.82;;;18.80;99.90;;;;;;5096059;28;20551;-64
2022/10/16 10:24:55;;;;;;;1.10;1.10;;;18.80;99.90;;;;;;5094817;28;20189;-66
2022/10/16 10:27:23;;;;;;;2.03;1.08;;;18.60;99.90;;;;;;5095994;28;20177;-64
2022/10/16 10:30:00;;;;;;;1.80;1.45;;;18.60;99.90;;;;;;5095318;28;20233;-65
2022/10/16 10:32:51;;;;;;;3.90;1.30;;;18.70;99.90;;;;;;5106843;28;20342;-65
2022/10/16 10:35:31;;;;;;;0.85;0.70;;;18.80;99.90;;;;;;5100113;28;20185;-65
2022/10/16 10:38:15;;;;;;;3.83;1.23;;;18.90;99.90;;;;;;5109211;28;20183;-65
2022/10/16 10:40:52;;;;;;;1.08;1.00;;;19.00;99.90;;;;;;5101000;28;20187;-67
2022/10/16 10:43:32;;;;;;;2.97;1.38;;;18.90;99.90;;;;;;5094981;28;20183;-65
2022/10/16 10:46:20;;;;;;;2.42;1.02;;;18.80;99.90;;;;;;5098960;28;20177;-66
2022/10/16 10:49:03;;;;;;;1.92;1.83;;;18.80;99.90;;;;;;5098197;28;20215;-69
2022/10/16 10:51:40;;;;;;;1.30;0.88;;;18.90;99.90;;;;;;5109272;28;20204;-67
2022/10/16 10:54:41;;;;;;;4.85;1.25;;;18.90;99.90;;;;;;5110979;28;20643;-66
2022/10/16 10:57:06;;;;;;;3.50;1.00;;;18.90;99.90;;;;;;5039369;28;20682;-65
2022/10/16 10:59:47;;;;;;;1.63;1.27;;;19.00;99.90;;;;;;5093926;28;20173;-65
2022/10/16 11:02:36;;;;;;;1.67;1.10;;;19.00;99.90;;;;;;5107597;28;20188;-66
2022/10/16 11:05:30;;;;;;;2.60;1.33;;;19.30;99.90;;;;;;5095636;28;20217;-66
2022/10/16 11:08:11;;;;;;;1.60;0.98;;;19.70;99.90;;;;;;5103801;28;20203;-64
2022/10/16 11:10:46;;;;;;;2.92;1.15;;;19.70;99.90;;;;;;5118160;27;20624;-64
2022/10/16 11:14:11;;;;;;;4.57;1.45;;;19.60;99.90;;;;;;5101796;28;20241;-68
2022/10/16 11:16:45;;;;;;;0.85;0.85;;;19.50;99.90;;;;;;5052773;28;20208;-67
2022/10/16 11:19:17;;;;;;;2.30;2.08;;;19.30;99.90;;;;;;5093926;28;20180;-66
2022/10/16 11:22:22;;;;;;;2.08;1.98;;;19.60;99.90;;;;;;5094100;28;20285;-67
2022/10/16 11:25:13;;;;;;;3.33;1.25;;;20.00;99.90;;;;;;5093847;28;20637;-67
2022/10/16 11:27:49;;;;;;;3.63;1.20;;;20.00;99.90;;;;;;5100673;28;20266;-67
2022/10/16 11:30:20;;;;;;;2.20;1.17;;;20.30;99.90;;;;;;5108902;28;20287;-66
2022/10/16 11:33:07;;;;;;;1.15;1.08;;;20.50;99.90;;;;;;5110058;28;20240;-66
2022/10/16 11:35:43;;;;;;;1.40;1.02;;;20.40;99.90;;;;;;5105569;28;20219;-66
2022/10/16 11:38:25;;;;;;;1.30;1.20;;;20.40;99.90;;;;;;5102903;28;20266;-66
2022/10/16 11:40:54;;;;;;;1.27;1.15;;;20.40;99.90;;;;;;5097184;28;20195;-67
2022/10/16 11:43:30;;;;;;;1.05;0.95;;;20.40;99.90;;;;;;5098183;28;20200;-66
2022/10/16 11:46:01;;;;;;;2.72;1.42;;;20.30;99.90;;;;;;5100405;28;20211;-66
2022/10/16 11:48:38;;;;;;;1.13;1.13;;;20.50;99.90;;;;;;5098957;27;20237;-66
2022/10/16 11:51:39;;;;;;;0.95;0.95;;;20.50;99.90;;;;;;5108276;27;20204;-66
2022/10/16 11:54:28;;;;;;;1.15;0.82;;;20.40;99.90;;;;;;5097340;28;20188;-66
2022/10/16 11:56:58;;;;;;;1.70;1.60;;;20.20;99.90;;;;;;5103304;28;20180;-66
2022/10/16 11:59:42;;;;;;;1.00;0.90;;;20.30;99.90;;;;;;5098885;28;20203;-66
2022/10/16 12:02:17;;;;;;;1.58;0.85;;;20.10;99.90;;;;;;5097397;28;20188;-66
2022/10/16 12:04:49;;;;;;;1.08;0.95;;;19.90;99.90;;;;;;5097094;28;20217;-66
2022/10/16 12:07:24;;;;;;;1.48;1.35;;;19.60;99.90;;;;;;5101674;28;20259;-66
2022/10/16 12:09:50;;;;;;;1.63;0.90;;;19.50;99.90;;;;;;5099784;28;20249;-66
2022/10/16 12:12:39;;;;;;;2.28;1.20;;;19.70;99.90;;;;;;5083776;28;20227;-65
2022/10/16 12:15:21;;;;;;;3.17;1.40;;;20.10;99.90;;;;;;5095499;28;20242;-66
2022/10/16 12:17:47;;;;;;;1.25;0.93;;;20.30;99.90;;;;;;5093384;28;20589;-65
2022/10/16 12:20:12;;;;;;;2.15;1.15;;;20.40;99.90;;;;;;5102278;28;20189;-65
2022/10/16 12:22:48;;;;;;;2.50;1.40;;;20.70;99.90;;;;;;5102791;28;20191;-65
2022/10/16 12:25:49;;;;;;;0.63;0.50;;;21.00;99.90;;;;;;5092649;28;20180;-67
2022/10/16 12:28:21;;;;;;;0.93;0.90;;;21.10;99.90;;;;;;5096883;28;20212;-67
2022/10/16 12:31:12;;;;;;;0.95;0.95;;;21.10;99.90;;;;;;5114546;27;20263;-67
2022/10/16 12:33:54;;;;;;;3.00;1.50;;;21.10;99.90;;;;;;5112132;28;20172;-68
2022/10/16 12:36:32;;;;;;;1.05;0.88;;;21.00;99.90;;;;;;5094928;28;20253;-66
2022/10/16 12:38:59;;;;;;;1.10;0.80;;;21.00;99.90;;;;;;5095710;28;20627;-67
2022/10/16 12:41:45;;;;;;;1.08;1.08;;;21.10;99.90;;;;;;5103040;28;20550;-68
2022/10/16 12:44:26;;;;;;;2.63;1.30;;;21.10;99.90;;;;;;5098894;28;20196;-67
2022/10/16 12:46:51;;;;;;;1.95;1.15;;;21.30;99.90;;;;;;5092845;28;20199;-67
2022/10/16 12:49:38;;;;;;;0.88;0.88;;;21.20;99.90;;;;;;5098405;28;20639;-67
2022/10/16 12:52:04;;;;;;;1.33;0.98;;;21.30;99.90;;;;;;5083448;28;20246;-67
2022/10/16 12:54:35;;;;;;;2.05;0.82;;;21.20;99.90;;;;;;5092865;28;20542;-67
2022/10/16 12:57:19;;;;;;;0.93;0.90;;;21.30;99.90;;;;;;5094262;28;20637;-68
2022/10/16 12:59:51;;;;;;;0.77;0.77;;;21.20;99.90;;;;;;5106937;28;20233;-66
2022/10/16 13:02:22;;;;;;;1.20;0.95;;;21.10;99.90;;;;;;5108687;28;20191;-65
2022/10/16 13:04:51;;;;;;;3.15;0.80;;;21.00;99.90;;;;;;5102455;28;20184;-65
2022/10/16 13:07:26;;;;;;;1.23;1.13;;;20.80;99.90;;;;;;5107110;28;20188;-66
2022/10/16 13:10:03;;;;;;;0.95;0.90;;;20.80;99.90;;;;;;5094612;28;20184;-66
2022/10/16 13:12:57;;;;;;;0.63;0.63;;;20.60;99.90;;;;;;5096251;28;20234;-65